KACK/ACK METAR and TAF weather

Enter ICAO airport designator
Station Type Date Time Source
KACK METAR 2021/09/28 15:53 UTC NOAA

KACK 281553Z 22017G23KT 10SM CLR 24/20 A2982 RMK AO2 SLP099 T02440200


Station Type Date Time Source
KACK Decoded METAR 2021/09/28 15:53 UTC NOAA

NANTUCKET MEMORIAL AIRPORT, MA, United States (KACK) 41-15N 70-04W 16M
Sep 28, 2021 - 11:53 AM EDT / 2021.09.28 1553 UTC
Wind: from the SW (220 degrees) at 20 MPH (17 KT) gusting to 26 MPH (23 KT):0
Visibility: 10 mile(s):0
Sky conditions: clear
Temperature: 75.9 F (24.4 C)
Dew Point: 68.0 F (20.0 C)
Relative Humidity: 76%
Pressure (altimeter): 29.82 in. Hg (1009 hPa)
ob: KACK 281553Z 22017G23KT 10SM CLR 24/20 A2982 RMK AO2 SLP099 T02440200
cycle: 16

Station Type Date Time Source
KACK TAF 2021/09/28 15:58 UTC NOAA

TAF
AMD KACK 281457Z 2815/2912 22014KT P6SM SCT050
FM281800 26010G19KT P6SM -SHRA OVC035
FM290000 30010KT 5SM -SHRA OVC025
FM290300 36012KT P6SM VCSH BKN020

Example: see airport list